Time;durP1;ratioP1;P1;durP2;ratioP2;P2;SDS_P1;SDS_P2;PMS_P1;PMS_P2;Temp;Humidity;BMP_temperature;BMP_pressure;BME280_temperature;BME280_humidity;BME280_pressure;Samples;Min_cycle;Max_cycle;Signal;HPM_P1;HPM_P2
2021/06/08 00:02:09;;;;;;;;;;;12.80;99.90;;;;;;5132830;27;19927;-58
2021/06/08 00:04:35;;;;;;;;;;;12.80;99.90;;;;;;5133571;27;19918;-58
2021/06/08 00:07:01;;;;;;;;;;;12.90;99.90;;;;;;5132998;27;20390;-58
2021/06/08 00:09:26;;;;;;;;;;;12.90;99.90;;;;;;5133998;27;19956;-58
2021/06/08 00:11:52;;;;;;;;;;;12.90;99.90;;;;;;5141372;27;19919;-58
2021/06/08 00:14:18;;;;;;;;;;;12.90;99.90;;;;;;5132260;27;19907;-58
2021/06/08 00:16:44;;;;;;;;;;;12.80;99.90;;;;;;5133007;27;19907;-58
2021/06/08 00:19:10;;;;;;;;;;;12.80;99.90;;;;;;5132608;27;19911;-58
2021/06/08 00:21:36;;;;;;;;;;;12.70;99.90;;;;;;5131530;27;19916;-58
2021/06/08 00:24:02;;;;;;;;;;;12.70;99.90;;;;;;5133283;27;19912;-57
2021/06/08 00:26:28;;;;;;;;;;;12.60;99.90;;;;;;5134588;27;20368;-58
2021/06/08 00:28:54;;;;;;;;;;;12.60;99.90;;;;;;5132070;27;19908;-58
2021/06/08 00:31:20;;;;;;;;;;;12.70;99.90;;;;;;5132497;27;19907;-58
2021/06/08 00:33:47;;;;;;;;;;;12.60;99.90;;;;;;5139776;27;19919;-58
2021/06/08 00:36:14;;;;;;;;;;;12.60;99.90;;;;;;5132908;28;19918;-58
2021/06/08 00:38:40;;;;;;;;;;;12.60;99.90;;;;;;5132208;27;19916;-58
2021/06/08 00:41:06;;;;;;;;;;;12.60;99.90;;;;;;5131684;27;19954;-58
2021/06/08 00:43:32;;;;;;;;;;;12.50;99.90;;;;;;5132245;28;19930;-58
2021/06/08 00:45:57;;;;;;;;;;;12.50;99.90;;;;;;5132748;28;19918;-58
2021/06/08 00:48:23;;;;;;;;;;;12.50;99.90;;;;;;5133355;27;19907;-58
2021/06/08 00:50:49;;;;;;;;;;;12.50;99.90;;;;;;5131683;27;20322;-59
2021/06/08 00:53:15;;;;;;;;;;;12.50;99.90;;;;;;5132122;28;20371;-59
2021/06/08 00:55:41;;;;;;;;;;;12.50;99.90;;;;;;5113467;27;19965;-59
2021/06/08 00:58:07;;;;;;;;;;;12.50;99.90;;;;;;5115392;28;19922;-58
2021/06/08 01:00:33;;;;;;;;;;;12.50;99.90;;;;;;5131630;27;19919;-59
2021/06/08 01:02:59;;;;;;;;;;;12.40;99.90;;;;;;5113317;28;19926;-59
2021/06/08 01:05:25;;;;;;;;;;;12.40;99.90;;;;;;5133327;27;19915;-59
2021/06/08 01:07:51;;;;;;;;;;;12.40;99.90;;;;;;5132914;27;19919;-59
2021/06/08 01:10:17;;;;;;;;;;;12.40;99.90;;;;;;5136968;27;19918;-59
2021/06/08 01:12:43;;;;;;;;;;;12.50;99.90;;;;;;5136269;27;19907;-59
2021/06/08 01:15:09;;;;;;;;;;;12.50;99.90;;;;;;5135493;27;20310;-58
2021/06/08 01:17:35;;;;;;;;;;;12.50;99.90;;;;;;5136838;27;19911;-59
2021/06/08 01:20:01;;;;;;;;;;;12.50;99.90;;;;;;5135069;27;19922;-59
2021/06/08 01:22:28;;;;;;;;;;;12.50;99.90;;;;;;5117948;27;20329;-59
2021/06/08 01:24:54;;;;;;;;;;;12.60;99.90;;;;;;5117082;27;19911;-59
2021/06/08 01:27:20;;;;;;;;;;;12.60;99.90;;;;;;5116029;27;19923;-59
2021/06/08 01:29:46;;;;;;;;;;;12.60;99.90;;;;;;5136286;27;19911;-58
2021/06/08 01:32:12;;;;;;;;;;;12.70;99.90;;;;;;5116384;27;20012;-59
2021/06/08 01:34:38;;;;;;;;;;;12.80;99.90;;;;;;5135551;27;19916;-59
2021/06/08 01:37:04;;;;;;;;;;;12.80;99.90;;;;;;5114136;27;19994;-59
2021/06/08 01:39:31;;;;;;;;;;;12.80;99.90;;;;;;5134855;27;19915;-59
2021/06/08 01:41:57;;;;;;;;;;;12.90;99.90;;;;;;5138285;27;20374;-59
2021/06/08 01:44:23;;;;;;;;;;;13.00;99.90;;;;;;5134766;27;19907;-59
2021/06/08 01:46:49;;;;;;;;;;;13.00;99.90;;;;;;5135563;27;19911;-59
2021/06/08 01:49:15;;;;;;;;;;;13.00;99.90;;;;;;5135309;27;19911;-59
2021/06/08 01:52:01;;;;;;;;;;;13.00;99.90;;;;;;5136164;27;19911;-59
2021/06/08 01:54:46;;;;;;;;;;;13.10;99.90;;;;;;5115746;27;19914;-59
2021/06/08 01:57:12;;;;;;;;;;;13.10;99.90;;;;;;5135881;27;19911;-59
2021/06/08 01:59:57;;;;;;;;;;;13.10;99.90;;;;;;5135704;27;19907;-58
2021/06/08 02:02:41;;;;;;;;;;;13.20;99.90;;;;;;5134333;27;19942;-58
2021/06/08 02:05:10;;;;;;;;;;;13.10;99.90;;;;;;5128722;27;19908;-58
2021/06/08 02:07:36;;;;;;;;;;;13.10;99.90;;;;;;5138122;27;19908;-58
2021/06/08 02:10:05;;;;;;;;;;;13.10;99.90;;;;;;5136358;27;20023;-58
2021/06/08 02:12:30;;;;;;;;;;;13.10;99.90;;;;;;5135547;27;19907;-58
2021/06/08 02:15:10;;;;;;;;;;;13.20;99.90;;;;;;5114205;27;19914;-58
2021/06/08 02:17:49;;;;;;;;;;;13.20;99.90;;;;;;5115326;27;21365;-58
2021/06/08 02:20:14;;;;;;;;;;;13.10;99.90;;;;;;5114842;27;19908;-58
2021/06/08 02:22:42;;;;;;;;;;;13.20;99.90;;;;;;5133776;27;20284;-57
2021/06/08 02:25:08;;;;;;;;;;;13.20;99.90;;;;;;5117032;27;19908;-58
2021/06/08 02:27:34;;;;;;;;;;;13.20;99.90;;;;;;5117667;27;19908;-58
2021/06/08 02:30:00;;;;;;;;;;;13.20;99.90;;;;;;5111508;27;21613;-59
2021/06/08 02:32:27;;;;;;;;;;;13.20;99.90;;;;;;5135143;27;19919;-58
2021/06/08 02:34:53;;;;;;;;;;;13.20;99.90;;;;;;5116061;27;19915;-58
2021/06/08 02:37:19;;;;;;;;;;;13.20;99.90;;;;;;5134883;27;19934;-59
2021/06/08 02:39:45;;;;;;;;;;;13.10;99.90;;;;;;5114047;27;20299;-59
2021/06/08 02:42:12;;;;;;;;;;;13.10;99.90;;;;;;5115453;27;19915;-59
2021/06/08 02:44:38;;;;;;;;;;;13.10;99.90;;;;;;5113079;27;19907;-57
2021/06/08 02:47:04;;;;;;;;;;;13.10;99.90;;;;;;5135821;27;19915;-58
2021/06/08 02:49:30;;;;;;;;;;;13.20;99.90;;;;;;5139253;27;19911;-57
2021/06/08 02:51:56;;;;;;;;;;;13.10;99.90;;;;;;5112111;27;19911;-58
2021/06/08 02:54:22;;;;;;;;;;;13.20;99.90;;;;;;5111979;27;19908;-58
2021/06/08 02:56:48;;;;;;;;;;;13.20;99.90;;;;;;5123044;27;19907;-58
2021/06/08 02:59:14;;;;;;;;;;;13.20;99.90;;;;;;5118617;27;20282;-58
2021/06/08 03:01:41;;;;;;;;;;;13.20;99.90;;;;;;5109463;28;19922;-58
2021/06/08 03:04:07;;;;;;;;;;;13.30;99.90;;;;;;5114211;27;19912;-58
2021/06/08 03:06:34;;;;;;;;;;;13.30;99.90;;;;;;5122477;27;19915;-58
2021/06/08 03:09:03;;;;;;;;;;;13.30;99.90;;;;;;5132900;27;19923;-58
2021/06/08 03:11:35;;;;;;;;;;;13.30;99.90;;;;;;5132566;27;19930;-58
2021/06/08 03:14:01;;;;;;;;;;;13.30;99.90;;;;;;5140041;27;19929;-59
2021/06/08 03:16:27;;;;;;;;;;;13.30;99.90;;;;;;5112416;27;19904;-59
2021/06/08 03:18:53;;;;;;;;;;;13.30;99.90;;;;;;5114790;27;19907;-59
2021/06/08 03:21:24;;;;;;;;;;;13.30;99.90;;;;;;5112247;27;19907;-59
2021/06/08 03:23:50;;;;;;;;;;;13.30;99.90;;;;;;5133301;27;19918;-59
2021/06/08 03:26:16;;;;;;;;;;;13.30;99.90;;;;;;5133612;27;20283;-59
2021/06/08 03:28:42;;;;;;;;;;;13.40;99.90;;;;;;5105992;27;19907;-59
2021/06/08 03:31:08;;;;;;;;;;;13.40;99.90;;;;;;5110980;27;19903;-59
2021/06/08 03:33:34;;;;;;;;;;;13.40;99.90;;;;;;5114924;27;19912;-59
2021/06/08 03:36:00;;;;;;;;;;;13.40;99.90;;;;;;5120488;27;20284;-59
2021/06/08 03:38:26;;;;;;;;;;;13.50;99.90;;;;;;5141005;27;20020;-57
2021/06/08 03:40:52;;;;;;;;;;;13.50;99.90;;;;;;5122426;27;19907;-59
2021/06/08 03:43:18;;;;;;;;;;;13.50;99.90;;;;;;5123226;27;19914;-59
2021/06/08 03:45:47;;;;;;;;;;;13.50;99.90;;;;;;5114890;27;19910;-59
2021/06/08 03:48:13;;;;;;;;;;;13.60;99.90;;;;;;5133918;27;19918;-58
2021/06/08 03:50:39;;;;;;;;;;;13.50;99.90;;;;;;5134387;27;19915;-58
2021/06/08 03:53:05;;;;;;;;;;;13.50;99.90;;;;;;5114236;27;19903;-57
2021/06/08 03:55:31;;;;;;;;;;;13.50;99.90;;;;;;5134212;27;19934;-58
2021/06/08 03:57:59;;;;;;;;;;;13.50;99.90;;;;;;5134016;27;20349;-55
2021/06/08 04:00:25;;;;;;;;;;;13.50;99.90;;;;;;5115669;27;19903;-57
2021/06/08 04:02:51;;;;;;;;;;;13.60;99.90;;;;;;5139089;27;20381;-57
2021/06/08 04:05:17;;;;;;;;;;;13.60;99.90;;;;;;5121697;27;19926;-58
2021/06/08 04:07:44;;;;;;;;;;;13.60;99.90;;;;;;5140747;27;19960;-58
2021/06/08 04:10:13;;;;;;;;;;;13.60;99.90;;;;;;5138482;27;20383;-58
2021/06/08 04:12:39;;;;;;;;;;;13.60;99.90;;;;;;5122469;27;19903;-57
2021/06/08 04:15:06;;;;;;;;;;;13.60;99.90;;;;;;5140369;27;19915;-58
2021/06/08 04:17:32;;;;;;;;;;;13.60;99.90;;;;;;5139337;27;19919;-58
2021/06/08 04:19:59;;;;;;;;;;;13.60;99.90;;;;;;5139196;27;19914;-57
2021/06/08 04:22:28;;;;;;;;;;;13.60;99.90;;;;;;5138915;27;20287;-58
2021/06/08 04:24:54;;;;;;;;;;;13.60;99.90;;;;;;5141463;27;19911;-58
2021/06/08 04:27:26;;;;;;;;;;;13.60;99.90;;;;;;5137421;27;20501;-58
2021/06/08 04:29:52;;;;;;;;;;;13.60;99.90;;;;;;5141107;27;19908;-58
2021/06/08 04:32:18;;;;;;;;;;;13.70;99.90;;;;;;5136208;27;19925;-69
2021/06/08 04:34:48;;;;;;;;;;;13.70;99.90;;;;;;5139616;27;20383;-58
2021/06/08 04:37:13;;;;;;;;;;;13.70;99.90;;;;;;5138264;27;20372;-59
2021/06/08 04:39:39;;;;;;;;;;;13.70;99.90;;;;;;5141647;27;19914;-58
2021/06/08 04:42:06;;;;;;;;;;;13.60;99.90;;;;;;5138211;27;19922;-58
2021/06/08 04:44:33;;;;;;;;;;;13.70;99.90;;;;;;5131510;27;20275;-58
2021/06/08 04:46:59;;;;;;;;;;;13.80;99.90;;;;;;5099326;28;19918;-58
2021/06/08 04:49:25;;;;;;;;;;;13.70;99.90;;;;;;5151524;27;20417;-58
2021/06/08 04:51:51;;;;;;;;;;;13.70;99.90;;;;;;5147510;27;19911;-58
2021/06/08 04:54:23;;;;;;;;;;;13.80;99.90;;;;;;5146119;27;19911;-59
2021/06/08 04:56:49;;;;;;;;;;;13.70;99.90;;;;;;5141300;27;19903;-59
2021/06/08 04:59:20;;;;;;;;;;;13.70;99.90;;;;;;5118342;27;20347;-58
2021/06/08 05:01:46;;;;;;;;;;;13.80;99.90;;;;;;5142808;27;19910;-59
2021/06/08 05:04:13;;;;;;;;;;;13.80;99.90;;;;;;5123273;27;20247;-59
2021/06/08 05:06:40;;;;;;;;;;;13.80;99.90;;;;;;5146293;27;19904;-59
2021/06/08 05:09:10;;;;;;;;;;;13.70;99.90;;;;;;5147320;27;19914;-58
2021/06/08 05:11:38;;;;;;;;;;;13.80;99.90;;;;;;5127516;27;19914;-57
2021/06/08 05:14:04;;;;;;;;;;;13.80;99.90;;;;;;5146438;27;19903;-57
2021/06/08 05:16:30;;;;;;;;;;;13.80;99.90;;;;;;5124009;27;19903;-58
2021/06/08 05:18:56;;;;;;;;;;;13.80;99.90;;;;;;5101434;28;19911;-61
2021/06/08 05:21:22;;;;;;;;;;;13.80;99.90;;;;;;5120698;27;19914;-58
2021/06/08 05:23:48;;;;;;;;;;;13.80;99.90;;;;;;5143421;27;20294;-57
2021/06/08 05:26:14;;;;;;;;;;;13.90;99.90;;;;;;5137130;27;19907;-58
2021/06/08 05:28:40;;;;;;;;;;;13.90;99.90;;;;;;5117763;27;19918;-57
2021/06/08 05:31:06;;;;;;;;;;;13.90;99.90;;;;;;5122129;27;19919;-59
2021/06/08 05:33:32;;;;;;;;;;;13.90;99.90;;;;;;5127877;27;19918;-58
2021/06/08 05:35:58;;;;;;;;;;;13.80;99.90;;;;;;5139077;27;19911;-58
2021/06/08 05:38:28;;;;;;;;;;;13.70;99.90;;;;;;5141388;27;19918;-58
2021/06/08 05:40:54;;;;;;;;;;;13.80;99.90;;;;;;5123417;27;20556;-59
2021/06/08 05:43:20;;;;;;;;;;;13.80;99.90;;;;;;5113652;27;19976;-58
2021/06/08 05:45:46;;;;;;;;;;;13.90;99.90;;;;;;5139531;27;19937;-57
2021/06/08 05:48:12;;;;;;;;;;;13.90;99.90;;;;;;5119190;27;19907;-58
2021/06/08 05:50:38;;;;;;;;;;;13.80;99.90;;;;;;5141000;27;19916;-57
2021/06/08 05:53:04;;;;;;;;;;;13.80;99.90;;;;;;5143122;27;19912;-57
2021/06/08 05:55:30;;;;;;;;;;;13.80;99.90;;;;;;5140684;27;19915;-57
2021/06/08 05:57:57;;;;;;;;;;;13.80;99.90;;;;;;5118958;27;20367;-58
2021/06/08 06:00:23;;;;;;;;;;;13.70;99.90;;;;;;5138923;27;19907;-57
2021/06/08 06:02:50;;;;;;;;;;;13.80;99.90;;;;;;5124057;27;20382;-57
2021/06/08 06:05:16;;;;;;;;;;;13.70;99.90;;;;;;5118091;27;19914;-57
2021/06/08 06:07:42;;;;;;;;;;;13.70;99.90;;;;;;5116010;27;19945;-57
2021/06/08 06:10:09;;;;;;;;;;;13.70;99.90;;;;;;5140538;27;19907;-57
2021/06/08 06:12:35;;;;;;;;;;;13.70;99.90;;;;;;5140718;27;20379;-57
2021/06/08 06:15:04;;;;;;;;;;;13.70;99.90;;;;;;5121385;27;19926;-57
2021/06/08 06:17:31;;;;;;;;;;;13.70;99.90;;;;;;5139271;27;19911;-57
2021/06/08 06:19:57;;;;;;;;;;;13.70;99.90;;;;;;5120681;27;19908;-57
2021/06/08 06:22:23;;;;;;;;;;;13.70;99.90;;;;;;5120025;27;19934;-56
2021/06/08 06:24:49;;;;;;;;;;;13.70;99.90;;;;;;5140140;27;20378;-57
2021/06/08 06:27:15;;;;;;;;;;;13.70;99.90;;;;;;5129753;27;19907;-57
2021/06/08 06:29:41;;;;;;;;;;;13.70;99.90;;;;;;5123007;27;19919;-58
2021/06/08 06:32:06;;;;;;;;;;;13.70;99.90;;;;;;5119897;27;19964;-58
2021/06/08 06:34:32;;;;;;;;;;;13.60;99.90;;;;;;5120726;27;19916;-58
2021/06/08 06:36:59;;;;;;;;;;;13.60;99.90;;;;;;5118538;27;20287;-58
2021/06/08 06:39:28;;;;;;;;;;;13.60;99.90;;;;;;5118046;27;19907;-58
2021/06/08 06:41:56;;;;;;;;;;;13.60;99.90;;;;;;5120918;27;19915;-57
2021/06/08 06:44:22;;;;;;;;;;;13.60;99.90;;;;;;5116475;27;19912;-58
2021/06/08 06:46:49;;;;;;;;;;;13.60;99.90;;;;;;5125939;27;19922;-57
2021/06/08 06:49:15;;;;;;;;;;;13.60;99.90;;;;;;5123724;27;20386;-58
2021/06/08 06:51:42;;;;;;;;;;;13.70;99.90;;;;;;5101319;27;19958;-57
2021/06/08 06:54:08;;;;;;;;;;;13.70;99.90;;;;;;5126418;27;19907;-58
2021/06/08 06:56:34;;;;;;;;;;;13.80;99.90;;;;;;5117550;27;19912;-58
2021/06/08 06:59:00;;;;;;;;;;;13.80;99.90;;;;;;5113748;28;19919;-57
2021/06/08 07:01:26;;;;;;;;;;;13.90;99.90;;;;;;5116562;27;19930;-57
2021/06/08 07:03:53;;;;;;;;;;;13.80;99.90;;;;;;5115695;27;19920;-58
2021/06/08 07:06:19;;;;;;;;;;;14.00;99.90;;;;;;5119637;27;19911;-58
2021/06/08 07:08:48;;;;;;;;;;;14.10;99.90;;;;;;5111506;28;19908;-60
2021/06/08 07:11:14;;;;;;;;;;;14.10;99.90;;;;;;5111108;28;19907;-59
2021/06/08 07:13:40;;;;;;;;;;;14.00;99.90;;;;;;5114160;28;20356;-59
2021/06/08 07:16:05;;;;;;;;;;;14.00;99.90;;;;;;5113877;28;19903;-58
2021/06/08 07:18:31;;;;;;;;;;;14.00;99.90;;;;;;5113006;28;19922;-58
2021/06/08 07:20:58;;;;;;;;;;;14.10;99.90;;;;;;5093499;28;19912;-59
2021/06/08 07:23:24;;;;;;;;;;;14.20;99.90;;;;;;5109107;28;20295;-58
2021/06/08 07:25:50;;;;;;;;;;;14.20;99.90;;;;;;5107731;28;19911;-57
2021/06/08 07:28:17;;;;;;;;;;;14.20;99.90;;;;;;5110542;28;19931;-57
2021/06/08 07:30:43;;;;;;;;;;;14.20;99.90;;;;;;5112445;27;19912;-59
2021/06/08 07:33:13;;;;;;;;;;;14.30;99.90;;;;;;5113827;27;19912;-58
2021/06/08 07:35:52;;;;;;;;;;;14.20;99.90;;;;;;5129713;27;19916;-57
2021/06/08 07:38:28;;;;;;;;;;;14.10;99.90;;;;;;5116255;27;19914;-57
2021/06/08 07:41:04;;;;;;;;;;;14.10;99.90;;;;;;5125613;27;19908;-57
2021/06/08 07:43:33;;;;;;;;;;;14.10;99.90;;;;;;5127766;27;19922;-57
2021/06/08 07:45:59;;;;;;;;;;;14.20;99.90;;;;;;5115611;27;19915;-55
2021/06/08 07:48:26;;;;;;;;;;;14.20;99.80;;;;;;5127419;27;20387;-57
2021/06/08 07:50:52;;;;;;;;;;;14.20;99.90;;;;;;5112695;27;20356;-56
2021/06/08 07:53:18;;;;;;;;;;;14.30;99.80;;;;;;5111118;27;19907;-57
2021/06/08 07:55:44;;;;;;;;;;;14.40;99.90;;;;;;5113112;27;19914;-57
2021/06/08 07:58:10;;;;;;;;;;;14.50;99.90;;;;;;5112443;27;20275;-58
2021/06/08 08:00:36;;;;;;;;;;;14.40;99.90;;;;;;5110761;27;19914;-57
2021/06/08 08:05:47;;;;;;;;;;;14.60;99.90;;;;;;5126263;27;19914;-58
2021/06/08 08:08:18;;;;;;;;;;;14.60;99.50;;;;;;5113765;27;20271;-57
2021/06/08 08:10:44;;;;;;;;;;;14.60;99.90;;;;;;5110827;27;19907;-58
2021/06/08 08:13:10;;;;;;;;;;;14.70;99.90;;;;;;5110926;27;20273;-57
2021/06/08 08:15:36;;;;;;;;;;;14.80;99.90;;;;;;5131178;27;19908;-56
2021/06/08 08:18:03;;;;;;;;;;;14.90;99.70;;;;;;5114517;27;19927;-58
2021/06/08 08:20:34;;;;;;;;;;;14.90;99.40;;;;;;5113344;27;19912;-58
2021/06/08 08:23:00;;;;;;;;;;;14.70;99.20;;;;;;5096019;28;19916;-58
2021/06/08 08:25:26;;;;;;;;;;;14.50;99.40;;;;;;5111845;28;19911;-57
2021/06/08 08:27:51;;;;;;;;;;;14.60;99.90;;;;;;5127690;27;19915;-57
2021/06/08 08:30:17;;;;;;;;;;;14.70;99.90;;;;;;5129424;27;20375;-56
2021/06/08 08:32:43;;;;;;;;;;;14.80;99.30;;;;;;5133221;28;19915;-59
2021/06/08 08:35:09;;;;;;;;;;;15.00;99.90;;;;;;5111434;28;19923;-57
2021/06/08 08:37:35;;;;;;;;;;;14.90;98.20;;;;;;5130665;28;19907;-57
2021/06/08 08:40:01;;;;;;;;;;;15.00;99.10;;;;;;5130926;28;19915;-58
2021/06/08 08:42:27;;;;;;;;;;;15.10;97.70;;;;;;5130307;27;19924;-57
2021/06/08 08:44:53;;;;;;;;;;;14.90;98.20;;;;;;5113065;28;19907;-58
2021/06/08 08:47:19;;;;;;;;;;;14.90;98.50;;;;;;5130520;28;19946;-59
2021/06/08 08:49:45;;;;;;;;;;;14.90;98.10;;;;;;5123533;27;21212;-59
2021/06/08 08:52:11;;;;;;;;;;;14.70;98.10;;;;;;5127564;28;19911;-58
2021/06/08 08:54:37;;;;;;;;;;;14.70;99.20;;;;;;5113758;28;19915;-58
2021/06/08 08:57:03;;;;;;;;;;;14.70;99.10;;;;;;5113125;28;19908;-57
2021/06/08 08:59:29;;;;;;;;;;;14.80;99.30;;;;;;5132297;27;19912;-57
2021/06/08 09:01:57;;;;;;;;;;;14.90;99.40;;;;;;5132447;27;19919;-58
2021/06/08 09:04:23;;;;;;;;;;;15.10;99.80;;;;;;5092335;27;19926;-58
2021/06/08 09:06:48;;;;;;;;;;;15.20;98.60;;;;;;5120240;27;19907;-58
2021/06/08 09:09:14;;;;;;;;;;;15.10;98.70;;;;;;5132544;28;19915;-58
2021/06/08 09:11:42;;;;;;;;;;;15.20;99.00;;;;;;5137844;27;20317;-59
2021/06/08 09:14:08;;;;;;;;;;;15.30;98.70;;;;;;5132530;28;19911;-58
2021/06/08 09:16:34;;;;;;;;;;;15.30;98.80;;;;;;5114121;28;19908;-58
2021/06/08 09:19:07;;;;;;;9.15;4.15;;;15.50;99.70;;;;;;5112883;28;20673;-58
2021/06/08 09:21:34;;;;;;;10.68;4.32;;;15.60;98.80;;;;;;5131722;27;20624;-58
2021/06/08 09:24:20;;;;;;;10.10;3.80;;;15.60;98.60;;;;;;5117550;28;20212;-58
2021/06/08 09:26:51;;;;;;;8.60;4.43;;;15.50;98.10;;;;;;5130989;28;20191;-59
2021/06/08 09:29:30;;;;;;;13.90;4.75;;;15.30;98.30;;;;;;5112838;27;20184;-59
2021/06/08 09:32:15;;;;;;;11.07;4.55;;;15.00;99.20;;;;;;5133879;27;20192;-58
2021/06/08 09:34:49;;;;;;;9.48;4.18;;;14.80;99.80;;;;;;5134477;27;20218;-59
2021/06/08 09:37:15;;;;;;;10.73;5.00;;;14.70;99.10;;;;;;5122806;27;20178;-59
2021/06/08 09:39:46;;;;;;;12.60;4.40;;;14.70;99.60;;;;;;5143280;27;20180;-60
2021/06/08 09:42:28;;;;;;;8.07;4.22;;;14.70;99.90;;;;;;5139084;27;20184;-58
2021/06/08 09:44:54;;;;;;;16.17;4.70;;;14.90;99.80;;;;;;5132956;27;20191;-58
2021/06/08 09:47:29;;;;;;;12.57;4.88;;;14.80;99.20;;;;;;5117049;27;20171;-58
2021/06/08 09:49:55;;;;;;;9.13;4.20;;;15.10;99.90;;;;;;5134982;27;20178;-62
2021/06/08 09:52:21;;;;;;;9.48;4.85;;;15.10;99.00;;;;;;5135242;27;20512;-58
2021/06/08 09:54:50;;;;;;;10.20;4.55;;;14.90;99.70;;;;;;5135550;27;20531;-59
2021/06/08 09:57:27;;;;;;;10.02;4.80;;;15.00;99.80;;;;;;5117221;27;20179;-58
2021/06/08 10:00:02;;;;;;;12.40;4.93;;;15.00;99.60;;;;;;5133761;27;20163;-59
2021/06/08 10:02:35;;;;;;;17.50;5.63;;;15.10;99.60;;;;;;5142088;27;20178;-58
2021/06/08 10:05:15;;;;;;;19.35;6.15;;;15.00;99.60;;;;;;5135074;27;20191;-59
2021/06/08 10:07:41;;;;;;;14.13;5.00;;;15.30;99.70;;;;;;5135189;27;20242;-59
2021/06/08 10:10:12;;;;;;;9.07;5.25;;;15.50;99.40;;;;;;5116529;27;20659;-59
2021/06/08 10:13:15;;;;;;;9.82;5.75;;;15.60;98.70;;;;;;5135551;27;20176;-58
2021/06/08 10:15:42;;;;;;;11.82;4.75;;;15.80;98.40;;;;;;5124905;27;20164;-58
2021/06/08 10:18:08;;;;;;;8.98;5.13;;;16.00;98.50;;;;;;5136964;27;20191;-59
2021/06/08 10:20:39;;;;;;;25.10;6.85;;;16.00;97.10;;;;;;5132829;27;20183;-60
2021/06/08 10:23:25;;;;;;;12.30;5.03;;;16.10;96.50;;;;;;5137525;27;20199;-59
2021/06/08 10:25:58;;;;;;;7.95;4.43;;;16.20;96.70;;;;;;5138448;27;20190;-59
2021/06/08 10:28:25;;;;;;;12.77;4.68;;;16.00;96.60;;;;;;5139263;27;20535;-59
2021/06/08 10:30:51;;;;;;;26.52;5.35;;;16.10;97.50;;;;;;5142812;27;20164;-59
2021/06/08 10:33:17;;;;;;;11.25;4.93;;;16.20;97.60;;;;;;5142286;27;20184;-59
2021/06/08 10:35:44;;;;;;;10.38;5.53;;;16.20;97.60;;;;;;5141054;27;20600;-58
2021/06/08 10:38:11;;;;;;;33.90;7.25;;;16.40;96.50;;;;;;5138289;27;20172;-59
2021/06/08 10:40:38;;;;;;;9.15;5.05;;;17.00;95.80;;;;;;5136292;27;20535;-59
2021/06/08 10:43:04;;;;;;;22.27;6.22;;;16.90;95.80;;;;;;5143585;27;20208;-59
2021/06/08 10:45:34;;;;;;;8.65;5.00;;;17.10;96.60;;;;;;5141171;27;20179;-60
2021/06/08 10:48:08;;;;;;;10.80;5.90;;;17.40;96.00;;;;;;5135170;27;20172;-58
2021/06/08 10:50:36;;;;;;;10.07;4.75;;;17.60;94.70;;;;;;5105367;27;20530;-58
2021/06/08 10:53:03;;;;;;;16.10;6.00;;;17.60;95.10;;;;;;5139514;27;20190;-58
2021/06/08 10:55:37;;;;;;;15.10;4.93;;;17.70;95.20;;;;;;5116313;27;20555;-58
2021/06/08 10:58:04;;;;;;;;;;;18.30;96.00;;;;;;5135140;27;20031;-58
2021/06/08 11:00:41;;;;;;;12.57;5.53;;;19.00;93.50;;;;;;5127322;27;19988;-58
2021/06/08 11:03:08;;;;;;;12.23;5.38;;;19.10;91.60;;;;;;5132714;27;20207;-58
2021/06/08 11:05:56;;;;;;;12.35;5.28;;;18.80;92.00;;;;;;5140705;27;20187;-58
2021/06/08 11:09:01;;;;;;;239.65;13.82;;;18.40;92.40;;;;;;5135561;27;20176;-59
2021/06/08 11:11:42;;;;;;;13.23;4.95;;;18.30;93.80;;;;;;5140076;27;20611;-58
2021/06/08 11:17:06;;;;;;;10.98;5.32;;;18.60;92.30;;;;;;5146181;27;20634;-58
2021/06/08 11:19:43;;;;;;;9.90;5.00;;;18.40;93.50;;;;;;5139717;27;20183;-59
2021/06/08 11:22:09;;;;;;;10.88;5.00;;;18.50;91.50;;;;;;5140468;27;20518;-59
2021/06/08 11:24:36;;;;;;;10.02;4.75;;;18.30;92.70;;;;;;5140323;27;20222;-59
2021/06/08 11:27:02;;;;;;;18.30;5.82;;;18.20;92.30;;;;;;5141995;27;20179;-60
2021/06/08 11:29:45;;;;;;;10.65;4.68;;;18.70;92.40;;;;;;5118624;27;20168;-59
2021/06/08 11:32:30;;;;;;;13.48;6.25;;;18.50;92.60;;;;;;5134152;27;20180;-59
2021/06/08 11:35:28;;;;;;;13.35;5.55;;;18.30;92.20;;;;;;5125486;27;20202;-66
2021/06/08 11:37:55;;;;;;;12.25;5.32;;;18.10;92.30;;;;;;5141274;27;20183;-59
2021/06/08 11:40:38;;;;;;;11.57;5.38;;;18.10;93.40;;;;;;5133112;27;20168;-59
2021/06/08 11:43:27;;;;;;;15.82;5.50;;;17.50;93.60;;;;;;5132997;27;20191;-60
2021/06/08 11:46:11;;;;;;;13.00;6.15;;;17.40;94.20;;;;;;5095006;27;20188;-60
2021/06/08 11:48:38;;;;;;;12.25;5.25;;;17.80;94.60;;;;;;5136332;27;20176;-60
2021/06/08 11:51:22;;;;;;;17.20;5.90;;;17.80;95.10;;;;;;5134672;27;20172;-62
2021/06/08 11:54:06;;;;;;;10.60;5.95;;;17.70;95.10;;;;;;5129389;27;20171;-61
2021/06/08 11:56:51;;;;;;;31.60;6.25;;;17.90;95.00;;;;;;5132477;27;20172;-61
2021/06/08 11:59:27;;;;;;;14.43;5.82;;;18.00;95.10;;;;;;5131465;27;20180;-62
2021/06/08 12:02:26;;;;;;;14.45;5.43;;;18.30;93.70;;;;;;5077823;28;20188;-62
2021/06/08 12:05:11;;;;;;;12.02;5.05;;;18.30;94.20;;;;;;5083837;27;20227;-61
2021/06/08 12:07:47;;;;;;;33.15;6.60;;;18.30;93.70;;;;;;5130664;27;20184;-62
2021/06/08 12:10:28;;;;;;;14.25;6.10;;;18.10;93.80;;;;;;5131450;27;20635;-61
2021/06/08 12:12:54;;;;;;;15.13;5.80;;;17.90;94.10;;;;;;5130792;27;20199;-60
2021/06/08 12:15:21;;;;;;;17.35;6.55;;;17.80;95.30;;;;;;5112550;27;20179;-60
2021/06/08 12:17:59;;;;;;;57.85;6.93;;;17.50;95.70;;;;;;5112685;27;20175;-60
2021/06/08 12:20:26;;;;;;;11.98;5.93;;;17.70;95.80;;;;;;5126330;27;20176;-61
2021/06/08 12:22:52;;;;;;;16.15;6.28;;;17.70;95.30;;;;;;5133205;27;20175;-61
2021/06/08 12:25:18;;;;;;;13.32;5.45;;;18.00;94.90;;;;;;5113664;27;20192;-62
2021/06/08 12:27:46;;;;;;;16.60;5.90;;;17.90;95.30;;;;;;5130660;27;20183;-61
2021/06/08 12:30:20;;;;;;;19.88;6.07;;;17.80;95.40;;;;;;5132247;28;20524;-61
2021/06/08 12:33:01;;;;;;;16.13;6.45;;;17.80;96.00;;;;;;5114352;28;20623;-62
2021/06/08 12:35:46;;;;;;;15.85;6.32;;;17.60;95.70;;;;;;5131397;28;20216;-60
2021/06/08 12:38:22;;;;;;;13.77;5.60;;;17.60;95.60;;;;;;5112691;28;20536;-62
2021/06/08 12:41:08;;;;;;;21.45;6.88;;;17.30;96.00;;;;;;5113081;28;20188;-62
2021/06/08 12:43:50;;;;;;;10.77;6.15;;;17.30;96.30;;;;;;5131043;28;20219;-61
2021/06/08 12:46:33;;;;;;;17.08;6.47;;;17.20;96.30;;;;;;5131628;28;20160;-60
2021/06/08 12:49:07;;;;;;;14.35;7.32;;;17.50;96.50;;;;;;5129648;28;20281;-61
2021/06/08 12:51:38;;;;;;;18.25;7.20;;;17.70;96.70;;;;;;5132600;28;20164;-61
2021/06/08 12:54:05;;;;;;;14.85;6.35;;;17.60;95.40;;;;;;5132382;28;20176;-60
2021/06/08 12:56:32;;;;;;;13.65;6.65;;;17.60;96.70;;;;;;5132640;28;20176;-62
2021/06/08 12:58:58;;;;;;;95.10;10.50;;;17.50;95.90;;;;;;5112836;28;20176;-59
2021/06/08 13:01:24;;;;;;;20.13;6.28;;;17.60;96.60;;;;;;5113989;28;20172;-61
2021/06/08 13:03:50;;;;;;;14.68;5.95;;;17.60;96.70;;;;;;5113278;27;20671;-60
2021/06/08 13:06:20;;;;;;;14.45;5.95;;;17.50;96.70;;;;;;5120514;27;20172;-61
2021/06/08 13:08:47;;;;;;;16.20;6.07;;;17.30;96.80;;;;;;5128249;27;20171;-61
2021/06/08 13:11:20;;;;;;;13.75;6.63;;;17.20;97.20;;;;;;5124365;27;20171;-61
2021/06/08 13:13:46;;;;;;;12.88;5.68;;;16.90;96.60;;;;;;5141011;27;20500;-61
2021/06/08 13:16:35;;;;;;;16.45;5.85;;;16.90;97.70;;;;;;5139443;27;20176;-61
2021/06/08 13:19:20;;;;;;;16.70;6.20;;;16.90;97.60;;;;;;5110818;27;20192;-60
2021/06/08 13:21:48;;;;;;;14.57;5.35;;;17.00;97.20;;;;;;5092227;27;20192;-61
2021/06/08 13:24:16;;;;;;;15.88;6.22;;;16.90;97.40;;;;;;5128485;27;20233;-62
2021/06/08 13:26:42;;;;;;;;;;;16.70;97.40;;;;;;5106181;27;20023;-62
2021/06/08 13:29:11;;;;;;;;;;;16.80;98.10;;;;;;5125066;27;20299;-61
2021/06/08 13:31:38;;;;;;;;;;;16.80;97.40;;;;;;5124295;27;19912;-61
2021/06/08 13:34:04;;;;;;;;;;;17.00;97.80;;;;;;5126061;27;19923;-61
2021/06/08 13:36:35;;;;;;;;;;;17.40;98.00;;;;;;5107373;27;19934;-62
2021/06/08 13:39:10;;;;;;;;;;;17.60;97.60;;;;;;5146452;27;20271;-62
2021/06/08 13:41:36;;;;;;;18.15;6.20;;;17.60;95.80;;;;;;5141835;27;20383;-61
2021/06/08 13:44:09;;;;;;;15.35;6.15;;;17.70;97.70;;;;;;5138822;27;20230;-62
2021/06/08 13:46:35;;;;;;;15.25;5.32;;;17.80;95.40;;;;;;5142355;27;20156;-61
2021/06/08 13:49:02;;;;;;;14.02;5.75;;;17.90;95.50;;;;;;5142559;27;20175;-60
2021/06/08 13:51:33;;;;;;;16.02;6.10;;;18.00;96.90;;;;;;5146402;27;20612;-62
2021/06/08 13:54:10;;;;;;;9.30;4.93;;;18.10;96.00;;;;;;5146555;27;20188;-62
2021/06/08 13:56:48;;;;;;;10.18;5.15;;;18.50;95.10;;;;;;5143779;27;20524;-60
2021/06/08 14:02:05;;;;;;;16.13;5.30;;;19.20;93.60;;;;;;5120490;28;20164;-61
2021/06/08 14:04:48;;;;;;;15.18;5.00;;;19.10;93.50;;;;;;5130465;27;20196;-62